Time;durP1;ratioP1;P1;durP2;ratioP2;P2;SDS_P1;SDS_P2;PMS_P1;PMS_P2;Temp;Humidity;BMP_temperature;BMP_pressure;BME280_temperature;BME280_humidity;BME280_pressure;Samples;Min_cycle;Max_cycle;Signal;HPM_P1;HPM_P2
2021/05/22 00:01:35;;;;;;;2.30;2.00;;;;;;;;;;5008035;28;20210;-45
2021/05/22 00:04:00;;;;;;;1.95;1.65;;;;;;;;;;4998660;28;20613;-45
2021/05/22 00:06:26;;;;;;;2.23;2.03;;;;;;;;;;5000603;28;20710;-45
2021/05/22 00:08:51;;;;;;;2.07;1.97;;;;;;;;;;5000116;28;20186;-45
2021/05/22 00:11:16;;;;;;;2.10;1.77;;;;;;;;;;5005672;28;20734;-46
2021/05/22 00:13:41;;;;;;;2.00;1.80;;;;;;;;;;5001719;28;20174;-45
2021/05/22 00:16:06;;;;;;;2.03;1.92;;;;;;;;;;4988401;28;20184;-46
2021/05/22 00:18:32;;;;;;;1.90;1.80;;;;;;;;;;5007088;28;20269;-45
2021/05/22 00:20:57;;;;;;;5.00;2.33;;;;;;;;;;5007019;28;20181;-45
2021/05/22 00:23:22;;;;;;;1.80;1.70;;;;;;;;;;4996936;28;20207;-47
2021/05/22 00:25:47;;;;;;;2.03;1.83;;;;;;;;;;4994363;28;20242;-46
2021/05/22 00:28:12;;;;;;;1.83;1.73;;;;;;;;;;5007468;28;20184;-46
2021/05/22 00:30:38;;;;;;;2.13;2.03;;;;;;;;;;5004226;28;20271;-46
2021/05/22 00:33:03;;;;;;;2.72;2.17;;;;;;;;;;5005212;28;20185;-46
2021/05/22 00:35:28;;;;;;;1.90;1.80;;;;;;;;;;5005222;28;20178;-46
2021/05/22 00:37:53;;;;;;;2.37;2.10;;;;;;;;;;4999247;28;20162;-45
2021/05/22 00:40:18;;;;;;;2.00;1.90;;;;;;;;;;5001749;28;20177;-46
2021/05/22 00:42:44;;;;;;;2.47;2.27;;;;;;;;;;5007510;28;20201;-46
2021/05/22 00:45:23;;;;;;;2.00;1.90;;;;;;;;;;4999859;28;20178;-48
2021/05/22 00:47:50;;;;;;;2.00;1.90;;;;;;;;;;5011751;28;20695;-49
2021/05/22 00:50:20;;;;;;;2.13;1.90;;;;;;;;;;5007954;28;20795;-46
2021/05/22 00:52:46;;;;;;;2.10;2.00;;;;;;;;;;4998041;28;20597;-45
2021/05/22 00:55:11;;;;;;;2.20;2.00;;;;;;;;;;4999090;28;20590;-48
2021/05/22 00:57:37;;;;;;;2.13;2.00;;;;;;;;;;4999802;28;20182;-47
2021/05/22 01:00:03;;;;;;;2.00;1.90;;;;;;;;;;5007013;28;20181;-46
2021/05/22 01:02:28;;;;;;;2.23;2.03;;;;;;;;;;5001978;28;20255;-46
2021/05/22 01:04:54;;;;;;;2.00;1.90;;;;;;;;;;5004662;28;20680;-49
2021/05/22 01:07:19;;;;;;;1.97;1.87;;;;;;;;;;5001478;28;20187;-46
2021/05/22 01:09:47;;;;;;;1.97;1.87;;;;;;;;;;5005601;28;20956;-46
2021/05/22 01:12:13;;;;;;;1.83;1.60;;;;;;;;;;4993544;28;20317;-46
2021/05/22 01:14:57;;;;;;;1.90;1.80;;;;;;;;;;5000382;28;20674;-45
2021/05/22 01:17:22;;;;;;;1.87;1.77;;;;;;;;;;5008843;28;20609;-46
2021/05/22 01:20:02;;;;;;;1.90;1.80;;;;;;;;;;5004359;28;20951;-46
2021/05/22 01:22:30;;;;;;;1.60;1.50;;;;;;;;;;4998063;28;20202;-46
2021/05/22 01:24:57;;;;;;;2.20;2.00;;;;;;;;;;5010053;28;20597;-46
2021/05/22 01:27:22;;;;;;;3.30;2.07;;;;;;;;;;5010194;28;20608;-46
2021/05/22 01:29:48;;;;;;;4.00;2.23;;;;;;;;;;5010624;28;20604;-47
2021/05/22 01:32:13;;;;;;;1.90;1.80;;;;;;;;;;5004091;28;20188;-46
2021/05/22 01:34:39;;;;;;;2.00;1.90;;;;;;;;;;5008110;28;20253;-46
2021/05/22 01:37:04;;;;;;;2.00;1.90;;;;;;;;;;5005806;28;20648;-46
2021/05/22 01:39:29;;;;;;;2.80;2.57;;;;;;;;;;5009191;28;20221;-46
2021/05/22 01:41:54;;;;;;;2.50;2.30;;;;;;;;;;5003267;28;20205;-46
2021/05/22 01:44:21;;;;;;;1.63;1.53;;;;;;;;;;5007130;28;20266;-46
2021/05/22 01:46:47;;;;;;;2.53;2.20;;;;;;;;;;5005198;28;20200;-46
2021/05/22 01:49:13;;;;;;;2.80;2.23;;;;;;;;;;5004338;28;20603;-45
2021/05/22 01:51:38;;;;;;;2.50;2.30;;;;;;;;;;4994922;28;20692;-44
2021/05/22 01:54:04;;;;;;;2.33;2.10;;;;;;;;;;5000488;28;20174;-46
2021/05/22 01:56:30;;;;;;;2.30;2.20;;;;;;;;;;5008590;28;20188;-45
2021/05/22 01:58:55;;;;;;;2.63;2.43;;;;;;;;;;5007384;28;20224;-45
2021/05/22 02:01:24;;;;;;;2.33;2.23;;;;;;;;;;5000610;28;20186;-47
2021/05/22 02:03:50;;;;;;;3.27;2.83;;;;;;;;;;5007009;28;20200;-47
2021/05/22 02:06:21;;;;;;;2.80;2.60;;;;;;;;;;5006346;28;20600;-46
2021/05/22 02:08:46;;;;;;;3.00;2.80;;;;;;;;;;5002450;28;20603;-47
2021/05/22 02:11:11;;;;;;;2.60;2.50;;;;;;;;;;5008633;28;20660;-46
2021/05/22 02:13:38;;;;;;;2.60;2.50;;;;;;;;;;5003518;28;20186;-46
2021/05/22 02:16:04;;;;;;;3.10;2.80;;;;;;;;;;4990569;28;20171;-45
2021/05/22 02:18:31;;;;;;;2.83;2.63;;;;;;;;;;5006350;28;20612;-46
2021/05/22 02:20:58;;;;;;;3.63;2.87;;;;;;;;;;5008414;28;20608;-46
2021/05/22 02:23:24;;;;;;;3.23;3.03;;;;;;;;;;4994485;28;20650;-46
2021/05/22 02:25:53;;;;;;;3.47;3.27;;;;;;;;;;5006979;28;20756;-46
2021/05/22 02:28:18;;;;;;;4.70;3.83;;;;;;;;;;5008377;28;20928;-46
2021/05/22 02:30:45;;;;;;;3.57;3.37;;;;;;;;;;4999695;28;20613;-46
2021/05/22 02:33:11;;;;;;;3.73;3.37;;;;;;;;;;4997446;28;20820;-46
2021/05/22 02:35:40;;;;;;;5.10;3.80;;;;;;;;;;5002244;28;20687;-46
2021/05/22 02:38:06;;;;;;;4.93;4.10;;;;;;;;;;5000861;28;20661;-47
2021/05/22 02:40:31;;;;;;;4.00;3.70;;;;;;;;;;5002820;28;20592;-48
2021/05/22 02:42:59;;;;;;;4.10;3.90;;;;;;;;;;5002028;28;21457;-46
2021/05/22 02:45:25;;;;;;;4.40;4.00;;;;;;;;;;4992758;28;20265;-46
2021/05/22 02:47:53;;;;;;;4.37;4.07;;;;;;;;;;5004238;28;20682;-47
2021/05/22 02:50:19;;;;;;;4.67;4.30;;;;;;;;;;5006963;28;20592;-46
2021/05/22 02:52:44;;;;;;;3.97;3.67;;;;;;;;;;5004944;28;20604;-46
2021/05/22 02:55:10;;;;;;;3.93;3.70;;;;;;;;;;5008366;28;20263;-47
2021/05/22 02:57:35;;;;;;;4.17;3.87;;;;;;;;;;5002799;28;20175;-46
2021/05/22 03:00:01;;;;;;;4.60;3.90;;;;;;;;;;5003743;28;20191;-47
2021/05/22 03:02:26;;;;;;;3.70;3.50;;;;;;;;;;4999076;28;20205;-46
2021/05/22 03:04:52;;;;;;;3.70;3.40;;;;;;;;;;5006157;28;20652;-47
2021/05/22 03:07:18;;;;;;;3.50;3.30;;;;;;;;;;5002157;28;20719;-48
2021/05/22 03:09:45;;;;;;;3.57;3.27;;;;;;;;;;5008774;28;20202;-47
2021/05/22 03:12:14;;;;;;;3.63;2.90;;;;;;;;;;5001845;28;20684;-46
2021/05/22 03:14:39;;;;;;;2.60;2.50;;;;;;;;;;4996339;28;20596;-47
2021/05/22 03:17:04;;;;;;;2.40;2.30;;;;;;;;;;5006121;28;20601;-47
2021/05/22 03:19:29;;;;;;;3.08;2.78;;;;;;;;;;5008815;28;20203;-47
2021/05/22 03:21:54;;;;;;;2.08;1.85;;;;;;;;;;5002173;28;20206;-48
2021/05/22 03:24:19;;;;;;;4.32;2.00;;;;;;;;;;5006926;28;20320;-47
2021/05/22 03:26:44;;;;;;;1.60;1.50;;;;;;;;;;5006915;28;20202;-46
2021/05/22 03:29:10;;;;;;;2.10;1.97;;;;;;;;;;4997273;28;20566;-46
2021/05/22 03:31:35;;;;;;;2.70;2.03;;;;;;;;;;4999444;28;20182;-46
2021/05/22 03:34:00;;;;;;;2.65;1.90;;;;;;;;;;5003436;28;20175;-46
2021/05/22 03:36:25;;;;;;;1.90;1.80;;;;;;;;;;5007224;28;20191;-46
2021/05/22 03:38:50;;;;;;;2.50;2.10;;;;;;;;;;5006318;28;20176;-47
2021/05/22 03:41:15;;;;;;;3.35;1.90;;;;;;;;;;4996883;28;20189;-47
2021/05/22 03:43:40;;;;;;;2.30;2.10;;;;;;;;;;5008064;28;20204;-47
2021/05/22 03:46:06;;;;;;;2.30;2.10;;;;;;;;;;4994340;28;20430;-47
2021/05/22 03:48:31;;;;;;;2.10;2.00;;;;;;;;;;5000731;28;20189;-46
2021/05/22 03:50:56;;;;;;;2.07;1.97;;;;;;;;;;5007426;28;20177;-46
2021/05/22 03:53:22;;;;;;;2.40;2.20;;;;;;;;;;5001477;28;20214;-47
2021/05/22 03:55:47;;;;;;;2.10;2.00;;;;;;;;;;5005489;28;20189;-47
2021/05/22 03:58:12;;;;;;;2.60;2.40;;;;;;;;;;5005227;28;20186;-45
2021/05/22 04:00:37;;;;;;;2.63;2.43;;;;;;;;;;5001838;28;20181;-45
2021/05/22 04:03:04;;;;;;;3.08;2.88;;;;;;;;;;5004438;28;20213;-46
2021/05/22 04:05:30;;;;;;;2.87;2.67;;;;;;;;;;5004783;28;20195;-46
2021/05/22 04:07:55;;;;;;;3.43;3.23;;;;;;;;;;5000658;28;20604;-45
2021/05/22 04:10:20;;;;;;;3.75;3.38;;;;;;;;;;5000228;28;20230;-46
2021/05/22 04:12:45;;;;;;;3.83;3.45;;;;;;;;;;5002752;28;20222;-45
2021/05/22 04:15:10;;;;;;;4.18;3.78;;;;;;;;;;5005584;28;20198;-45
2021/05/22 04:17:36;;;;;;;3.40;3.10;;;;;;;;;;5001275;28;20178;-45
2021/05/22 04:20:03;;;;;;;3.80;3.50;;;;;;;;;;4989129;28;20266;-45
2021/05/22 04:22:28;;;;;;;4.07;3.80;;;;;;;;;;4998700;28;20205;-46
2021/05/22 04:24:53;;;;;;;3.53;3.20;;;;;;;;;;5006132;28;20650;-45
2021/05/22 04:27:18;;;;;;;3.97;3.67;;;;;;;;;;5006912;28;20180;-46
2021/05/22 04:29:43;;;;;;;3.57;3.37;;;;;;;;;;5000221;28;20195;-46
2021/05/22 04:32:08;;;;;;;4.27;3.87;;;;;;;;;;5005135;28;20231;-46
2021/05/22 04:34:34;;;;;;;3.43;3.23;;;;;;;;;;5005114;28;20174;-46
2021/05/22 04:36:59;;;;;;;3.30;3.10;;;;;;;;;;5000080;28;20259;-45
2021/05/22 04:39:24;;;;;;;3.80;3.50;;;;;;;;;;4999536;28;20170;-44
2021/05/22 04:41:50;;;;;;;3.70;3.50;;;;;;;;;;5006195;28;20716;-45
2021/05/22 04:44:15;;;;;;;3.50;3.30;;;;;;;;;;5004239;28;21970;-45
2021/05/22 04:46:40;;;;;;;3.60;3.40;;;;;;;;;;5001116;28;20220;-46
2021/05/22 04:49:06;;;;;;;3.40;3.20;;;;;;;;;;5006858;28;20270;-46
2021/05/22 04:51:31;;;;;;;3.20;3.00;;;;;;;;;;5007205;28;20286;-45
2021/05/22 04:54:01;;;;;;;3.40;3.20;;;;;;;;;;5007647;28;20526;-46
2021/05/22 04:56:26;;;;;;;3.43;3.20;;;;;;;;;;5006882;28;20185;-44
2021/05/22 04:58:51;;;;;;;3.10;2.90;;;;;;;;;;5007217;28;20601;-45
2021/05/22 05:01:16;;;;;;;3.17;2.97;;;;;;;;;;5006419;28;20185;-44
2021/05/22 05:03:41;;;;;;;3.10;2.90;;;;;;;;;;5005846;28;20227;-44
2021/05/22 05:06:07;;;;;;;3.00;2.80;;;;;;;;;;4991426;28;20191;-46
2021/05/22 05:08:32;;;;;;;3.30;3.00;;;;;;;;;;5002774;28;20646;-45
2021/05/22 05:10:58;;;;;;;3.05;2.85;;;;;;;;;;5006948;28;20290;-46
2021/05/22 05:13:23;;;;;;;3.60;3.30;;;;;;;;;;5007568;28;20222;-45
2021/05/22 05:15:48;;;;;;;3.37;3.07;;;;;;;;;;5006551;28;20637;-45
2021/05/22 05:18:13;;;;;;;3.60;3.40;;;;;;;;;;5006252;28;20609;-46
2021/05/22 05:20:39;;;;;;;3.90;3.60;;;;;;;;;;5005753;28;20193;-46
2021/05/22 05:23:04;;;;;;;3.47;3.17;;;;;;;;;;4990284;28;20286;-46
2021/05/22 05:25:29;;;;;;;2.92;2.60;;;;;;;;;;5006159;28;20178;-45
2021/05/22 05:27:54;;;;;;;2.90;2.70;;;;;;;;;;5006194;28;20182;-47
2021/05/22 05:30:19;;;;;;;3.28;3.00;;;;;;;;;;5004933;28;20175;-45
2021/05/22 05:32:44;;;;;;;2.93;2.73;;;;;;;;;;5009159;28;20203;-46
2021/05/22 05:35:10;;;;;;;2.87;2.67;;;;;;;;;;4995723;28;20574;-45
2021/05/22 05:37:36;;;;;;;2.60;2.40;;;;;;;;;;4996933;28;20182;-46
2021/05/22 05:40:01;;;;;;;2.30;2.10;;;;;;;;;;5006204;28;20177;-45
2021/05/22 05:42:26;;;;;;;1.67;1.57;;;;;;;;;;5004035;28;20217;-47
2021/05/22 05:44:51;;;;;;;2.10;2.00;;;;;;;;;;5009978;28;20196;-48
2021/05/22 05:47:17;;;;;;;1.63;1.53;;;;;;;;;;5000710;28;20400;-46
2021/05/22 05:49:42;;;;;;;2.70;1.90;;;;;;;;;;5010109;28;20686;-47
2021/05/22 05:52:08;;;;;;;2.15;1.95;;;;;;;;;;5007762;28;20171;-47
2021/05/22 05:54:34;;;;;;;4.93;1.47;;;;;;;;;;5006519;28;20175;-46
2021/05/22 05:56:59;;;;;;;1.70;1.60;;;;;;;;;;5008009;28;21018;-46
2021/05/22 05:59:24;;;;;;;1.80;1.70;;;;;;;;;;5001929;28;20535;-47
2021/05/22 06:01:49;;;;;;;1.40;1.30;;;;;;;;;;5006444;28;20677;-45
2021/05/22 06:04:14;;;;;;;1.55;1.45;;;;;;;;;;5007831;28;20253;-47
2021/05/22 06:06:40;;;;;;;1.20;1.20;;;;;;;;;;5008415;28;20177;-45
2021/05/22 06:09:05;;;;;;;1.20;1.20;;;;;;;;;;5006684;28;20181;-45
2021/05/22 06:11:33;;;;;;;0.97;0.97;;;;;;;;;;5006538;28;20749;-46
2021/05/22 06:13:58;;;;;;;1.97;1.20;;;;;;;;;;4994643;28;20449;-47
2021/05/22 06:16:29;;;;;;;1.30;1.20;;;;;;;;;;5004923;28;20604;-45
2021/05/22 06:18:54;;;;;;;4.73;1.10;;;;;;;;;;5002103;28;20699;-46
2021/05/22 06:21:19;;;;;;;1.00;1.00;;;;;;;;;;5000608;28;20657;-46
2021/05/22 06:23:44;;;;;;;1.50;1.40;;;;;;;;;;5001083;28;20655;-45
2021/05/22 06:26:10;;;;;;;1.00;1.00;;;;;;;;;;5004803;28;20670;-46
2021/05/22 06:28:35;;;;;;;0.83;0.83;;;;;;;;;;4991166;28;20186;-48
2021/05/22 06:31:01;;;;;;;1.07;1.00;;;;;;;;;;4999130;28;20683;-47
2021/05/22 06:33:26;;;;;;;1.00;1.00;;;;;;;;;;4998358;28;20232;-47
2021/05/22 06:35:52;;;;;;;1.43;1.10;;;;;;;;;;5006051;28;20600;-46
2021/05/22 06:38:17;;;;;;;1.53;0.90;;;;;;;;;;4994496;28;20697;-46
2021/05/22 06:40:43;;;;;;;1.00;0.90;;;;;;;;;;4997260;28;20201;-46
2021/05/22 06:43:08;;;;;;;1.07;0.80;;;;;;;;;;4987070;28;20212;-46
2021/05/22 06:45:41;;;;;;;1.00;0.90;;;;;;;;;;4994153;28;20174;-47
2021/05/22 06:48:07;;;;;;;1.10;1.10;;;;;;;;;;4999754;28;20841;-47
2021/05/22 06:50:33;;;;;;;2.00;1.00;;;;;;;;;;5005154;28;20620;-48
2021/05/22 06:52:58;;;;;;;1.13;1.03;;;;;;;;;;5006109;28;20185;-47
2021/05/22 06:55:23;;;;;;;1.80;1.13;;;;;;;;;;5003516;28;20983;-46
2021/05/22 06:57:48;;;;;;;1.60;1.10;;;;;;;;;;4998383;28;20674;-47
2021/05/22 07:00:14;;;;;;;1.20;1.10;;;;;;;;;;4999288;28;20183;-47
2021/05/22 07:02:39;;;;;;;0.90;0.90;;;;;;;;;;5003434;28;20214;-48
2021/05/22 07:05:05;;;;;;;1.00;1.00;;;;;;;;;;5003661;28;20175;-47
2021/05/22 07:07:30;;;;;;;0.90;0.90;;;;;;;;;;5004421;28;20176;-46
2021/05/22 07:09:55;;;;;;;1.80;1.00;;;;;;;;;;4996058;28;20521;-46
2021/05/22 07:12:20;;;;;;;1.30;0.98;;;;;;;;;;5001357;28;20245;-46
2021/05/22 07:14:45;;;;;;;1.08;1.00;;;;;;;;;;5002862;28;20177;-46
2021/05/22 07:17:10;;;;;;;1.38;1.20;;;;;;;;;;5005509;28;20181;-46
2021/05/22 07:19:36;;;;;;;1.63;1.10;;;;;;;;;;5005058;28;20264;-46
2021/05/22 07:22:01;;;;;;;1.88;1.10;;;;;;;;;;5004705;28;20278;-46
2021/05/22 07:24:26;;;;;;;1.20;1.10;;;;;;;;;;5001456;28;20296;-47
2021/05/22 07:26:52;;;;;;;1.07;1.07;;;;;;;;;;4996922;28;20346;-47
2021/05/22 07:29:17;;;;;;;2.30;1.00;;;;;;;;;;4995601;28;20182;-47
2021/05/22 07:31:43;;;;;;;1.10;1.10;;;;;;;;;;4997543;28;20176;-48
2021/05/22 07:34:09;;;;;;;1.93;1.20;;;;;;;;;;5007281;28;20201;-47
2021/05/22 07:36:37;;;;;;;1.40;1.10;;;;;;;;;;5001600;28;20190;-47
2021/05/22 07:39:04;;;;;;;1.20;1.10;;;;;;;;;;4990748;28;20170;-46
2021/05/22 07:41:29;;;;;;;1.17;1.07;;;;;;;;;;5003539;28;20635;-46
2021/05/22 07:43:55;;;;;;;1.65;1.17;;;;;;;;;;5004345;28;21224;-47
2021/05/22 07:46:20;;;;;;;1.90;1.33;;;;;;;;;;4993206;28;20230;-46
2021/05/22 07:48:45;;;;;;;3.08;1.25;;;;;;;;;;5001831;28;20629;-48
2021/05/22 07:51:10;;;;;;;2.57;1.77;;;;;;;;;;5003257;28;20541;-46
2021/05/22 07:53:35;;;;;;;2.20;1.30;;;;;;;;;;4999041;28;20178;-46
2021/05/22 07:56:00;;;;;;;1.50;1.20;;;;;;;;;;5007005;28;20570;-47
2021/05/22 07:58:26;;;;;;;1.80;1.03;;;;;;;;;;5005803;28;20733;-47
2021/05/22 08:00:51;;;;;;;1.85;1.33;;;;;;;;;;5004361;28;20190;-47
2021/05/22 08:03:16;;;;;;;2.47;1.20;;;;;;;;;;4994456;28;20205;-47
2021/05/22 08:05:41;;;;;;;3.20;1.60;;;;;;;;;;5007524;28;20197;-46
2021/05/22 08:08:06;;;;;;;1.57;1.20;;;;;;;;;;4998697;28;20265;-46
2021/05/22 08:10:32;;;;;;;1.77;1.30;;;;;;;;;;5004685;28;20289;-48
2021/05/22 08:12:57;;;;;;;2.73;1.20;;;;;;;;;;5000645;28;20713;-48
2021/05/22 08:15:22;;;;;;;2.63;1.33;;;;;;;;;;5005438;28;20512;-48
2021/05/22 08:17:48;;;;;;;1.87;1.30;;;;;;;;;;4999111;28;20196;-47
2021/05/22 08:20:13;;;;;;;2.05;1.30;;;;;;;;;;5007050;28;20176;-47
2021/05/22 08:22:39;;;;;;;1.27;1.07;;;;;;;;;;5001643;28;20234;-47
2021/05/22 08:25:05;;;;;;;2.67;1.07;;;;;;;;;;5005677;28;20272;-47
2021/05/22 08:27:30;;;;;;;1.00;1.00;;;;;;;;;;5003421;28;20572;-48
2021/05/22 08:29:56;;;;;;;1.30;1.20;;;;;;;;;;5000349;28;20657;-48
2021/05/22 08:32:21;;;;;;;1.27;1.00;;;;;;;;;;5001093;28;20188;-46
2021/05/22 08:34:46;;;;;;;1.40;1.10;;;;;;;;;;5010728;28;20192;-48
2021/05/22 08:37:13;;;;;;;2.85;1.10;;;;;;;;;;5004626;28;20651;-49
2021/05/22 08:39:43;;;;;;;1.87;1.03;;;;;;;;;;5004073;28;20187;-48
2021/05/22 08:42:10;;;;;;;1.67;1.13;;;;;;;;;;5006591;28;20638;-47
2021/05/22 08:44:38;;;;;;;2.30;1.33;;;;;;;;;;5006331;28;20685;-47
2021/05/22 08:47:03;;;;;;;1.53;1.00;;;;;;;;;;5004983;28;20594;-48
2021/05/22 08:49:40;;;;;;;1.77;1.20;;;;;;;;;;5005212;28;20684;-48
2021/05/22 08:52:05;;;;;;;1.70;1.37;;;;;;;;;;5007146;28;20672;-47
2021/05/22 08:54:40;;;;;;;1.23;1.13;;;;;;;;;;4996244;28;20698;-47
2021/05/22 08:57:06;;;;;;;1.57;1.33;;;;;;;;;;4995937;28;20689;-47
2021/05/22 08:59:32;;;;;;;1.93;1.40;;;;;;;;;;5008824;28;20609;-47
2021/05/22 09:01:57;;;;;;;1.03;1.00;;;;;;;;;;5004979;28;20678;-46
2021/05/22 09:04:23;;;;;;;4.03;1.30;;;;;;;;;;5018612;28;21197;-48
2021/05/22 09:06:59;;;;;;;1.50;0.97;;;;;;;;;;4998442;28;20222;-48
2021/05/22 09:09:36;;;;;;;3.03;1.50;;;;;;;;;;4998381;28;20187;-47
2021/05/22 09:12:01;;;;;;;1.60;1.10;;;;;;;;;;5022825;28;20688;-46
2021/05/22 09:14:48;;;;;;;2.60;1.40;;;;;;;;;;5009720;28;20603;-47
2021/05/22 09:17:13;;;;;;;3.10;1.00;;;;;;;;;;5019838;28;20266;-48
2021/05/22 09:19:38;;;;;;;1.80;1.20;;;;;;;;;;5004507;28;21158;-47
2021/05/22 09:22:26;;;;;;;1.43;1.13;;;;;;;;;;4992270;28;20212;-47
2021/05/22 09:25:01;;;;;;;1.30;1.20;;;;;;;;;;5003443;28;20389;-47
2021/05/22 09:27:29;;;;;;;1.17;1.07;;;;;;;;;;5003861;28;21029;-48
2021/05/22 09:29:55;;;;;;;1.93;1.00;;;;;;;;;;5003148;28;20604;-47
2021/05/22 09:32:20;;;;;;;2.15;1.30;;;;;;;;;;4998810;28;20709;-47
2021/05/22 09:34:47;;;;;;;2.63;1.10;;;;;;;;;;5010739;28;20191;-47
2021/05/22 09:37:13;;;;;;;1.80;1.23;;;;;;;;;;5004856;28;20191;-47
2021/05/22 09:39:48;;;;;;;1.53;1.17;;;;;;;;;;5015206;28;20630;-46
2021/05/22 09:42:13;;;;;;;1.67;1.10;;;;;;;;;;5000453;28;20202;-48
2021/05/22 09:44:39;;;;;;;2.40;1.33;;;;;;;;;;4996891;28;20600;-48
2021/05/22 09:47:04;;;;;;;2.13;1.00;;;;;;;;;;5003150;28;20173;-48
2021/05/22 09:49:32;;;;;;;1.70;1.20;;;;;;;;;;5000113;28;20253;-47
2021/05/22 09:51:58;;;;;;;1.30;1.10;;;;;;;;;;5014158;28;20667;-48
2021/05/22 09:54:42;;;;;;;1.10;1.00;;;;;;;;;;5003128;28;21172;-47
2021/05/22 09:57:08;;;;;;;1.20;1.10;;;;;;;;;;5003064;28;20599;-46
2021/05/22 09:59:33;;;;;;;2.93;1.30;;;;;;;;;;5004187;28;20617;-46
2021/05/22 10:01:59;;;;;;;1.97;1.47;;;;;;;;;;5000206;28;20223;-46
2021/05/22 10:04:25;;;;;;;2.43;1.63;;;;;;;;;;5013626;28;20612;-48
2021/05/22 10:06:50;;;;;;;1.20;0.97;;;;;;;;;;5001175;28;20642;-45
2021/05/22 10:09:19;;;;;;;2.03;1.10;;;;;;;;;;5004831;28;20175;-47
2021/05/22 10:12:03;;;;;;;2.77;1.50;;;;;;;;;;5017048;28;20303;-47
2021/05/22 10:14:36;;;;;;;1.47;1.27;;;;;;;;;;5019668;28;20593;-46
2021/05/22 10:17:02;;;;;;;1.47;1.20;;;;;;;;;;5005292;28;20606;-46
2021/05/22 10:19:30;;;;;;;2.80;1.40;;;;;;;;;;5004447;28;21141;-46
2021/05/22 10:21:55;;;;;;;1.47;1.30;;;;;;;;;;5008340;28;21229;-47
2021/05/22 10:24:20;;;;;;;2.00;1.63;;;;;;;;;;5013481;28;20690;-46
2021/05/22 10:26:46;;;;;;;2.30;1.20;;;;;;;;;;5008252;28;20603;-46
2021/05/22 10:29:11;;;;;;;2.60;1.50;;;;;;;;;;5004272;28;20220;-46
2021/05/22 10:31:38;;;;;;;2.28;1.50;;;;;;;;;;4992374;28;20708;-45
2021/05/22 10:34:10;;;;;;;1.33;1.23;;;;;;;;;;5006951;28;20189;-46
2021/05/22 10:36:47;;;;;;;2.63;1.20;;;;;;;;;;5002471;28;20702;-46
2021/05/22 10:39:31;;;;;;;4.17;1.60;;;;;;;;;;5003905;28;20688;-46
2021/05/22 10:41:57;;;;;;;3.30;1.33;;;;;;;;;;5002576;28;20611;-47
2021/05/22 10:44:29;;;;;;;1.00;0.80;;;;;;;;;;5006574;28;21005;-47
2021/05/22 10:47:02;;;;;;;4.80;1.20;;;;;;;;;;5007992;28;20291;-47
2021/05/22 10:49:47;;;;;;;2.03;1.07;;;;;;;;;;5008184;28;20585;-46
2021/05/22 10:52:31;;;;;;;3.27;1.47;;;;;;;;;;5001497;28;21406;-46
2021/05/22 10:55:07;;;;;;;1.80;1.27;;;;;;;;;;5001256;28;20605;-46
2021/05/22 10:57:54;;;;;;;1.73;1.17;;;;;;;;;;5002612;28;20672;-46
2021/05/22 11:00:23;;;;;;;1.70;0.90;;;;;;;;;;5007516;28;21025;-45
2021/05/22 11:02:51;;;;;;;2.90;1.07;;;;;;;;;;5003897;28;20652;-46
2021/05/22 11:05:22;;;;;;;3.17;1.10;;;;;;;;;;5008078;28;20605;-47
2021/05/22 11:08:03;;;;;;;1.17;1.07;;;;;;;;;;5006509;28;20599;-46
2021/05/22 11:10:41;;;;;;;1.37;1.20;;;;;;;;;;5008996;28;20633;-48
2021/05/22 11:13:10;;;;;;;1.80;1.20;;;;;;;;;;5002726;28;20638;-46
2021/05/22 11:15:55;;;;;;;1.20;0.93;;;;;;;;;;4994540;28;20653;-47
2021/05/22 11:18:24;;;;;;;2.43;1.20;;;;;;;;;;5001155;28;20722;-45
2021/05/22 11:21:08;;;;;;;2.20;1.33;;;;;;;;;;5000239;28;20657;-47
2021/05/22 11:23:51;;;;;;;6.40;1.40;;;;;;;;;;4999875;28;21247;-47
2021/05/22 11:26:37;;;;;;;2.43;1.20;;;;;;;;;;5008015;28;20594;-48
2021/05/22 11:29:02;;;;;;;1.53;1.10;;;;;;;;;;4998414;28;20642;-46
2021/05/22 11:31:31;;;;;;;5.37;4.67;;;;;;;;;;5007832;28;20595;-47
2021/05/22 11:34:16;;;;;;;1.80;1.40;;;;;;;;;;5004235;28;20185;-46
2021/05/22 11:36:41;;;;;;;1.57;1.13;;;;;;;;;;5002404;28;21043;-45
2021/05/22 11:39:27;;;;;;;2.05;1.30;;;;;;;;;;4997439;28;20604;-47
2021/05/22 11:41:52;;;;;;;2.37;1.23;;;;;;;;;;5006562;28;20192;-46
2021/05/22 11:44:17;;;;;;;1.60;1.27;;;;;;;;;;5007889;28;20599;-47
2021/05/22 11:46:50;;;;;;;2.30;1.30;;;;;;;;;;5007957;28;20636;-47
2021/05/22 11:49:15;;;;;;;3.00;1.63;;;;;;;;;;5006693;28;20181;-47
2021/05/22 11:51:42;;;;;;;1.10;1.00;;;;;;;;;;5003545;28;20694;-48
2021/05/22 11:54:08;;;;;;;4.93;1.30;;;;;;;;;;4996222;28;20298;-47
2021/05/22 11:56:34;;;;;;;2.00;1.37;;;;;;;;;;4999001;28;20722;-47
2021/05/22 11:59:00;;;;;;;1.60;1.30;;;;;;;;;;4997249;28;20607;-46
2021/05/22 12:01:35;;;;;;;2.20;1.37;;;;;;;;;;5005744;28;20595;-45
2021/05/22 12:04:04;;;;;;;1.50;1.20;;;;;;;;;;5003766;28;20215;-46
2021/05/22 12:06:35;;;;;;;2.00;1.07;;;;;;;;;;5003514;28;20597;-47
2021/05/22 12:09:01;;;;;;;1.30;1.20;;;;;;;;;;5002769;28;21445;-45
2021/05/22 12:11:29;;;;;;;1.40;1.00;;;;;;;;;;5004132;28;20774;-47
2021/05/22 12:13:55;;;;;;;2.20;1.40;;;;;;;;;;5004420;28;20612;-47
2021/05/22 12:16:20;;;;;;;1.47;1.03;;;;;;;;;;4999152;28;20608;-47
2021/05/22 12:18:45;;;;;;;1.93;1.00;;;;;;;;;;5003021;28;20606;-44
2021/05/22 12:21:20;;;;;;;1.17;0.93;;;;;;;;;;5002783;28;20257;-46
2021/05/22 12:23:45;;;;;;;1.87;1.00;;;;;;;;;;4992469;28;20196;-46
2021/05/22 12:26:10;;;;;;;0.80;0.80;;;;;;;;;;5004208;28;20999;-46
2021/05/22 12:28:35;;;;;;;1.50;0.90;;;;;;;;;;5002530;28;20166;-46
2021/05/22 12:31:00;;;;;;;1.38;1.10;;;;;;;;;;4996969;28;20227;-47
2021/05/22 12:33:26;;;;;;;1.83;1.27;;;;;;;;;;5000451;28;20704;-46
2021/05/22 12:36:02;;;;;;;2.50;1.03;;;;;;;;;;5003943;28;20188;-46
2021/05/22 12:38:40;;;;;;;1.23;1.10;;;;;;;;;;5003365;28;20603;-47
2021/05/22 12:41:06;;;;;;;4.13;1.47;;;;;;;;;;4988383;28;20603;-47
2021/05/22 12:43:42;;;;;;;2.03;1.00;;;;;;;;;;4999146;28;21085;-46
2021/05/22 12:46:21;;;;;;;1.30;1.20;;;;;;;;;;4998857;28;20187;-47
2021/05/22 12:48:46;;;;;;;1.73;1.10;;;;;;;;;;4999157;28;20584;-46
2021/05/22 12:51:15;;;;;;;1.80;0.70;;;;;;;;;;4999825;28;20599;-46
2021/05/22 12:53:42;;;;;;;1.00;1.00;;;;;;;;;;5003404;28;20201;-46
2021/05/22 12:56:07;;;;;;;1.33;0.90;;;;;;;;;;4991798;28;20605;-46
2021/05/22 12:58:32;;;;;;;1.27;1.17;;;;;;;;;;5005165;28;20656;-46
2021/05/22 13:01:00;;;;;;;1.03;0.93;;;;;;;;;;4997279;28;20192;-46
2021/05/22 13:03:34;;;;;;;1.43;0.93;;;;;;;;;;4988236;28;20313;-46
2021/05/22 13:06:00;;;;;;;2.30;1.10;;;;;;;;;;4988980;28;20725;-46
2021/05/22 13:08:25;;;;;;;1.83;1.20;;;;;;;;;;4994566;28;20605;-45
2021/05/22 13:10:50;;;;;;;3.13;1.20;;;;;;;;;;4996964;28;20206;-46
2021/05/22 13:13:17;;;;;;;2.05;1.15;;;;;;;;;;5003655;28;20717;-46
2021/05/22 13:15:43;;;;;;;0.97;0.87;;;;;;;;;;4999663;28;20181;-46
2021/05/22 13:18:13;;;;;;;3.47;1.30;;;;;;;;;;4995493;28;20640;-46
2021/05/22 13:20:39;;;;;;;2.03;1.30;;;;;;;;;;4997862;28;20792;-48
2021/05/22 13:23:06;;;;;;;1.83;1.17;;;;;;;;;;5004882;28;20670;-45
2021/05/22 13:25:32;;;;;;;1.63;1.40;;;;;;;;;;5001894;28;20688;-46
2021/05/22 13:27:59;;;;;;;1.40;1.30;;;;;;;;;;4987011;28;20622;-46
2021/05/22 13:30:25;;;;;;;1.20;1.10;;;;;;;;;;4988852;28;21197;-45
2021/05/22 13:32:50;;;;;;;3.40;1.10;;;;;;;;;;4985776;28;20592;-46
2021/05/22 13:35:15;;;;;;;2.10;1.17;;;;;;;;;;4998355;28;21229;-47
2021/05/22 13:37:40;;;;;;;2.03;1.37;;;;;;;;;;5005203;28;20215;-47
2021/05/22 13:40:06;;;;;;;1.83;1.02;;;;;;;;;;5005153;28;20260;-47
2021/05/22 13:42:33;;;;;;;1.43;0.90;;;;;;;;;;4987963;28;20244;-47
2021/05/22 13:44:58;;;;;;;1.67;1.20;;;;;;;;;;4985105;28;20325;-46
2021/05/22 13:47:23;;;;;;;1.60;1.13;;;;;;;;;;5002743;28;20695;-46
2021/05/22 13:49:48;;;;;;;1.70;1.00;;;;;;;;;;5007346;28;20234;-47
2021/05/22 13:52:13;;;;;;;1.53;1.03;;;;;;;;;;5009727;28;20182;-46
2021/05/22 13:54:39;;;;;;;3.38;1.20;;;;;;;;;;5006600;28;20229;-47
2021/05/22 13:57:04;;;;;;;2.00;1.03;;;;;;;;;;4988374;28;20258;-46
2021/05/22 13:59:29;;;;;;;2.77;1.00;;;;;;;;;;4994472;28;20177;-47
2021/05/22 14:01:54;;;;;;;2.60;1.30;;;;;;;;;;5009965;28;20184;-47
2021/05/22 14:04:19;;;;;;;2.17;1.00;;;;;;;;;;5009663;28;20624;-47
2021/05/22 14:06:45;;;;;;;1.47;1.10;;;;;;;;;;5008128;28;20176;-48
2021/05/22 14:09:10;;;;;;;1.90;0.93;;;;;;;;;;5007631;28;20647;-46
2021/05/22 14:11:35;;;;;;;1.03;0.90;;;;;;;;;;4998333;28;20236;-47
2021/05/22 14:14:00;;;;;;;2.47;1.00;;;;;;;;;;5007973;28;20174;-48
2021/05/22 14:16:25;;;;;;;1.20;1.03;;;;;;;;;;5007554;28;20218;-46
2021/05/22 14:18:51;;;;;;;1.17;0.93;;;;;;;;;;5007465;28;20177;-45
2021/05/22 14:21:16;;;;;;;2.20;1.10;;;;;;;;;;5009123;28;20177;-46
2021/05/22 14:23:41;;;;;;;1.30;1.20;;;;;;;;;;5007901;28;20201;-47
2021/05/22 14:26:07;;;;;;;3.00;1.40;;;;;;;;;;5001285;28;20265;-47
2021/05/22 14:28:32;;;;;;;2.40;1.50;;;;;;;;;;5008451;28;20239;-47
2021/05/22 14:30:57;;;;;;;1.93;1.60;;;;;;;;;;5009324;28;20189;-46
2021/05/22 14:33:23;;;;;;;2.70;1.20;;;;;;;;;;5008848;28;20599;-46
2021/05/22 14:35:48;;;;;;;4.87;1.73;;;;;;;;;;5006124;28;20188;-47
2021/05/22 14:38:13;;;;;;;5.27;1.63;;;;;;;;;;5006713;28;20192;-46
2021/05/22 14:40:39;;;;;;;2.65;1.20;;;;;;;;;;5007972;28;20184;-46
2021/05/22 14:43:04;;;;;;;1.97;1.53;;;;;;;;;;5007233;28;20208;-47